Sacramento, California
Traffic Map
Current Weather Conditions
Sacramento, California
Clear
Clear
54°
Feels Like: 54°
Wind Chill: 54° Ceiling: Unl
Heat Index: 54° Visibility: 10mi
Dew Point: 51° Wind: 0mph
Humidity: 90% Direction: ° ()
Pressure: 30.07in Gusts: 0mph
Raw Report DataKSAC 271253Z AUTO 00000KT 10SM CLR 12/11 A3007 RMK AO2 SLP184 T01220106
Traffic Incident Summary
Active as of:
Severity:
Category:
InformationThere was an issue retrieving the traffic information for this location. Please try a different location or try again shortly.
Advertisements
Track Severe Weather on mobile